sensor_id;sensor_type;location;lat;lon;timestamp;P1;durP1;ratioP1;P2;durP2;ratioP2
462;SDS011;218;51.902;9.542;2022-12-18T00:02:20;27.85;;;19.10;;
462;SDS011;218;51.902;9.542;2022-12-18T00:04:48;23.20;;;16.77;;
462;SDS011;218;51.902;9.542;2022-12-18T00:07:15;23.08;;;17.63;;
462;SDS011;218;51.902;9.542;2022-12-18T00:09:43;23.10;;;18.42;;
462;SDS011;218;51.902;9.542;2022-12-18T00:12:11;19.75;;;17.10;;
462;SDS011;218;51.902;9.542;2022-12-18T00:14:38;19.73;;;17.70;;
462;SDS011;218;51.902;9.542;2022-12-18T00:17:05;23.80;;;17.25;;
462;SDS011;218;51.902;9.542;2022-12-18T00:19:32;26.67;;;16.13;;
462;SDS011;218;51.902;9.542;2022-12-18T00:21:59;24.27;;;18.77;;
462;SDS011;218;51.902;9.542;2022-12-18T00:24:26;24.20;;;19.52;;
462;SDS011;218;51.902;9.542;2022-12-18T00:26:54;30.25;;;19.98;;
462;SDS011;218;51.902;9.542;2022-12-18T00:29:21;25.17;;;18.60;;
462;SDS011;218;51.902;9.542;2022-12-18T00:31:48;23.13;;;17.65;;
462;SDS011;218;51.902;9.542;2022-12-18T00:34:15;27.33;;;21.30;;
462;SDS011;218;51.902;9.542;2022-12-18T00:36:42;27.20;;;19.38;;
462;SDS011;218;51.902;9.542;2022-12-18T00:39:09;27.58;;;20.20;;
462;SDS011;218;51.902;9.542;2022-12-18T00:41:38;26.08;;;19.40;;
462;SDS011;218;51.902;9.542;2022-12-18T00:44:24;26.77;;;20.73;;
462;SDS011;218;51.902;9.542;2022-12-18T00:46:50;26.38;;;21.08;;
462;SDS011;218;51.902;9.542;2022-12-18T00:49:18;32.08;;;21.83;;
462;SDS011;218;51.902;9.542;2022-12-18T00:51:46;24.02;;;20.15;;
462;SDS011;218;51.902;9.542;2022-12-18T00:54:14;27.50;;;18.75;;
462;SDS011;218;51.902;9.542;2022-12-18T00:56:41;26.17;;;18.92;;
462;SDS011;218;51.902;9.542;2022-12-18T00:59:08;28.52;;;19.55;;
462;SDS011;218;51.902;9.542;2022-12-18T01:01:37;25.80;;;18.60;;
462;SDS011;218;51.902;9.542;2022-12-18T01:04:04;27.23;;;19.75;;
462;SDS011;218;51.902;9.542;2022-12-18T01:06:31;23.80;;;17.70;;
462;SDS011;218;51.902;9.542;2022-12-18T01:08:58;25.65;;;19.95;;
462;SDS011;218;51.902;9.542;2022-12-18T01:11:25;25.63;;;18.08;;
462;SDS011;218;51.902;9.542;2022-12-18T01:13:53;26.60;;;19.48;;
462;SDS011;218;51.902;9.542;2022-12-18T01:16:20;26.23;;;20.38;;
462;SDS011;218;51.902;9.542;2022-12-18T01:18:50;25.00;;;18.98;;
462;SDS011;218;51.902;9.542;2022-12-18T01:21:18;23.23;;;17.83;;
462;SDS011;218;51.902;9.542;2022-12-18T01:23:46;21.50;;;17.55;;
462;SDS011;218;51.902;9.542;2022-12-18T01:26:14;22.27;;;17.50;;
462;SDS011;218;51.902;9.542;2022-12-18T01:28:41;27.80;;;19.23;;
462;SDS011;218;51.902;9.542;2022-12-18T01:31:10;20.85;;;18.42;;
462;SDS011;218;51.902;9.542;2022-12-18T01:33:38;31.80;;;20.63;;
462;SDS011;218;51.902;9.542;2022-12-18T01:36:06;23.10;;;17.67;;
462;SDS011;218;51.902;9.542;2022-12-18T01:38:34;21.48;;;16.10;;
462;SDS011;218;51.902;9.542;2022-12-18T01:41:01;24.70;;;17.40;;
462;SDS011;218;51.902;9.542;2022-12-18T01:46:16;25.88;;;16.85;;
462;SDS011;218;51.902;9.542;2022-12-18T01:48:43;18.20;;;14.52;;
462;SDS011;218;51.902;9.542;2022-12-18T01:51:12;18.42;;;14.88;;
462;SDS011;218;51.902;9.542;2022-12-18T01:53:40;18.33;;;14.98;;
462;SDS011;218;51.902;9.542;2022-12-18T01:56:08;20.52;;;16.15;;
462;SDS011;218;51.902;9.542;2022-12-18T01:58:37;20.08;;;14.90;;
462;SDS011;218;51.902;9.542;2022-12-18T02:01:09;15.68;;;14.05;;
462;SDS011;218;51.902;9.542;2022-12-18T02:03:36;16.15;;;14.43;;
462;SDS011;218;51.902;9.542;2022-12-18T02:06:06;22.73;;;15.45;;
462;SDS011;218;51.902;9.542;2022-12-18T02:08:40;20.98;;;14.65;;
462;SDS011;218;51.902;9.542;2022-12-18T02:11:10;19.98;;;13.82;;
462;SDS011;218;51.902;9.542;2022-12-18T02:13:41;18.60;;;14.13;;
462;SDS011;218;51.902;9.542;2022-12-18T02:16:15;19.58;;;14.25;;
462;SDS011;218;51.902;9.542;2022-12-18T02:18:48;20.50;;;15.07;;
462;SDS011;218;51.902;9.542;2022-12-18T02:21:21;16.58;;;13.63;;
462;SDS011;218;51.902;9.542;2022-12-18T02:24:00;18.13;;;12.88;;
462;SDS011;218;51.902;9.542;2022-12-18T02:26:40;16.98;;;14.48;;
462;SDS011;218;51.902;9.542;2022-12-18T02:29:12;16.77;;;14.38;;
462;SDS011;218;51.902;9.542;2022-12-18T02:31:42;21.48;;;15.52;;
462;SDS011;218;51.902;9.542;2022-12-18T02:34:11;19.52;;;14.27;;
462;SDS011;218;51.902;9.542;2022-12-18T02:36:40;19.42;;;15.65;;
462;SDS011;218;51.902;9.542;2022-12-18T02:39:10;19.23;;;16.17;;
462;SDS011;218;51.902;9.542;2022-12-18T02:41:39;15.40;;;13.77;;
462;SDS011;218;51.902;9.542;2022-12-18T02:44:07;18.58;;;15.02;;
462;SDS011;218;51.902;9.542;2022-12-18T02:46:36;19.50;;;16.15;;
462;SDS011;218;51.902;9.542;2022-12-18T02:49:06;27.33;;;16.15;;
462;SDS011;218;51.902;9.542;2022-12-18T02:51:44;22.25;;;15.82;;
462;SDS011;218;51.902;9.542;2022-12-18T02:54:21;20.33;;;14.38;;
462;SDS011;218;51.902;9.542;2022-12-18T02:57:15;21.55;;;16.25;;
462;SDS011;218;51.902;9.542;2022-12-18T02:59:49;22.45;;;16.92;;
462;SDS011;218;51.902;9.542;2022-12-18T03:02:23;20.63;;;14.80;;
462;SDS011;218;51.902;9.542;2022-12-18T03:04:55;17.13;;;14.45;;
462;SDS011;218;51.902;9.542;2022-12-18T03:07:27;22.25;;;16.38;;
462;SDS011;218;51.902;9.542;2022-12-18T03:10:00;19.90;;;13.65;;
462;SDS011;218;51.902;9.542;2022-12-18T03:12:30;19.55;;;14.70;;
462;SDS011;218;51.902;9.542;2022-12-18T03:15:01;19.52;;;15.60;;
462;SDS011;218;51.902;9.542;2022-12-18T03:17:31;20.85;;;14.50;;
462;SDS011;218;51.902;9.542;2022-12-18T03:19:59;20.77;;;15.57;;
462;SDS011;218;51.902;9.542;2022-12-18T03:22:32;22.38;;;16.45;;
462;SDS011;218;51.902;9.542;2022-12-18T03:25:00;19.10;;;14.45;;
462;SDS011;218;51.902;9.542;2022-12-18T03:27:30;20.73;;;15.13;;
462;SDS011;218;51.902;9.542;2022-12-18T03:30:00;17.58;;;15.70;;
462;SDS011;218;51.902;9.542;2022-12-18T03:32:33;19.88;;;15.43;;
462;SDS011;218;51.902;9.542;2022-12-18T03:35:05;17.20;;;14.57;;
462;SDS011;218;51.902;9.542;2022-12-18T03:37:34;16.63;;;14.82;;
462;SDS011;218;51.902;9.542;2022-12-18T03:40:02;16.13;;;13.40;;
462;SDS011;218;51.902;9.542;2022-12-18T03:42:32;19.63;;;13.63;;
462;SDS011;218;51.902;9.542;2022-12-18T03:45:02;20.13;;;15.25;;
462;SDS011;218;51.902;9.542;2022-12-18T03:47:30;19.05;;;14.80;;
462;SDS011;218;51.902;9.542;2022-12-18T03:50:04;19.30;;;13.57;;
462;SDS011;218;51.902;9.542;2022-12-18T03:52:36;16.50;;;13.40;;
462;SDS011;218;51.902;9.542;2022-12-18T03:55:07;16.27;;;13.27;;
462;SDS011;218;51.902;9.542;2022-12-18T03:57:37;16.23;;;13.07;;
462;SDS011;218;51.902;9.542;2022-12-18T04:00:05;18.70;;;13.60;;
462;SDS011;218;51.902;9.542;2022-12-18T04:02:35;16.67;;;13.65;;
462;SDS011;218;51.902;9.542;2022-12-18T04:05:04;18.27;;;14.25;;
462;SDS011;218;51.902;9.542;2022-12-18T04:07:34;15.70;;;12.70;;
462;SDS011;218;51.902;9.542;2022-12-18T04:10:02;13.98;;;12.52;;
462;SDS011;218;51.902;9.542;2022-12-18T04:12:30;14.75;;;12.20;;
462;SDS011;218;51.902;9.542;2022-12-18T04:14:58;14.65;;;13.00;;
462;SDS011;218;51.902;9.542;2022-12-18T04:17:25;14.32;;;12.82;;
462;SDS011;218;51.902;9.542;2022-12-18T04:19:52;15.73;;;13.50;;
462;SDS011;218;51.902;9.542;2022-12-18T04:22:19;16.20;;;13.27;;
462;SDS011;218;51.902;9.542;2022-12-18T04:24:47;17.55;;;14.00;;
462;SDS011;218;51.902;9.542;2022-12-18T04:27:14;20.92;;;14.80;;
462;SDS011;218;51.902;9.542;2022-12-18T04:29:41;17.33;;;13.23;;
462;SDS011;218;51.902;9.542;2022-12-18T04:32:09;16.45;;;13.95;;
462;SDS011;218;51.902;9.542;2022-12-18T04:34:36;17.02;;;14.32;;
462;SDS011;218;51.902;9.542;2022-12-18T04:37:03;15.52;;;13.30;;
462;SDS011;218;51.902;9.542;2022-12-18T04:39:30;14.27;;;12.48;;
462;SDS011;218;51.902;9.542;2022-12-18T04:41:57;16.65;;;13.10;;
462;SDS011;218;51.902;9.542;2022-12-18T04:44:27;15.85;;;12.43;;
462;SDS011;218;51.902;9.542;2022-12-18T04:46:54;14.82;;;11.68;;
462;SDS011;218;51.902;9.542;2022-12-18T04:49:23;20.40;;;12.43;;
462;SDS011;218;51.902;9.542;2022-12-18T04:51:50;18.38;;;14.68;;
462;SDS011;218;51.902;9.542;2022-12-18T04:54:18;15.65;;;13.95;;
462;SDS011;218;51.902;9.542;2022-12-18T04:56:46;19.25;;;14.23;;
462;SDS011;218;51.902;9.542;2022-12-18T04:59:13;19.50;;;14.07;;
462;SDS011;218;51.902;9.542;2022-12-18T05:01:40;16.63;;;13.98;;
462;SDS011;218;51.902;9.542;2022-12-18T05:04:07;15.88;;;12.23;;
462;SDS011;218;51.902;9.542;2022-12-18T05:06:35;14.80;;;12.40;;
462;SDS011;218;51.902;9.542;2022-12-18T05:09:02;15.07;;;12.50;;
462;SDS011;218;51.902;9.542;2022-12-18T05:11:30;16.90;;;13.95;;
462;SDS011;218;51.902;9.542;2022-12-18T05:13:57;15.40;;;11.80;;
462;SDS011;218;51.902;9.542;2022-12-18T05:16:24;16.33;;;11.82;;
462;SDS011;218;51.902;9.542;2022-12-18T05:18:51;14.85;;;12.70;;
462;SDS011;218;51.902;9.542;2022-12-18T05:21:18;13.68;;;10.98;;
462;SDS011;218;51.902;9.542;2022-12-18T05:23:47;13.23;;;11.48;;
462;SDS011;218;51.902;9.542;2022-12-18T05:26:15;13.30;;;11.15;;
462;SDS011;218;51.902;9.542;2022-12-18T05:28:43;16.05;;;11.82;;
462;SDS011;218;51.902;9.542;2022-12-18T05:31:10;11.93;;;10.40;;
462;SDS011;218;51.902;9.542;2022-12-18T05:33:37;14.25;;;11.55;;
462;SDS011;218;51.902;9.542;2022-12-18T05:36:05;15.27;;;11.75;;
462;SDS011;218;51.902;9.542;2022-12-18T05:38:35;13.15;;;10.85;;
462;SDS011;218;51.902;9.542;2022-12-18T05:41:04;17.90;;;11.82;;
462;SDS011;218;51.902;9.542;2022-12-18T05:43:33;14.77;;;10.73;;
462;SDS011;218;51.902;9.542;2022-12-18T05:46:03;15.88;;;11.70;;
462;SDS011;218;51.902;9.542;2022-12-18T05:48:30;16.58;;;11.90;;
462;SDS011;218;51.902;9.542;2022-12-18T05:51:02;19.40;;;13.25;;
462;SDS011;218;51.902;9.542;2022-12-18T05:53:29;17.70;;;13.02;;
462;SDS011;218;51.902;9.542;2022-12-18T05:55:59;14.82;;;12.88;;
462;SDS011;218;51.902;9.542;2022-12-18T05:58:27;13.98;;;11.85;;
462;SDS011;218;51.902;9.542;2022-12-18T06:00:54;15.23;;;11.52;;
462;SDS011;218;51.902;9.542;2022-12-18T06:03:22;17.23;;;13.27;;
462;SDS011;218;51.902;9.542;2022-12-18T06:05:49;17.50;;;12.75;;
462;SDS011;218;51.902;9.542;2022-12-18T06:08:16;16.50;;;12.43;;
462;SDS011;218;51.902;9.542;2022-12-18T06:10:48;17.45;;;14.43;;
462;SDS011;218;51.902;9.542;2022-12-18T06:13:16;19.20;;;14.73;;
462;SDS011;218;51.902;9.542;2022-12-18T06:15:45;17.73;;;14.27;;
462;SDS011;218;51.902;9.542;2022-12-18T06:18:11;17.65;;;15.60;;
462;SDS011;218;51.902;9.542;2022-12-18T06:20:39;22.13;;;17.15;;
462;SDS011;218;51.902;9.542;2022-12-18T06:23:06;19.42;;;14.50;;
462;SDS011;218;51.902;9.542;2022-12-18T06:25:36;20.27;;;13.90;;
462;SDS011;218;51.902;9.542;2022-12-18T06:28:04;17.27;;;12.32;;
462;SDS011;218;51.902;9.542;2022-12-18T06:30:32;19.60;;;15.25;;
462;SDS011;218;51.902;9.542;2022-12-18T06:33:00;14.27;;;11.45;;
462;SDS011;218;51.902;9.542;2022-12-18T06:35:28;15.85;;;12.65;;
462;SDS011;218;51.902;9.542;2022-12-18T06:37:55;15.55;;;12.75;;
462;SDS011;218;51.902;9.542;2022-12-18T06:40:22;18.65;;;14.75;;
462;SDS011;218;51.902;9.542;2022-12-18T06:42:49;20.75;;;12.40;;
462;SDS011;218;51.902;9.542;2022-12-18T06:45:16;17.15;;;12.57;;
462;SDS011;218;51.902;9.542;2022-12-18T06:47:42;24.70;;;16.90;;
462;SDS011;218;51.902;9.542;2022-12-18T06:50:11;24.20;;;19.20;;
462;SDS011;218;51.902;9.542;2022-12-18T06:52:39;23.95;;;19.33;;
462;SDS011;218;51.902;9.542;2022-12-18T06:55:06;29.25;;;21.90;;
462;SDS011;218;51.902;9.542;2022-12-18T06:57:36;27.70;;;21.95;;
462;SDS011;218;51.902;9.542;2022-12-18T07:00:04;25.63;;;20.15;;
462;SDS011;218;51.902;9.542;2022-12-18T07:02:32;20.90;;;18.17;;
462;SDS011;218;51.902;9.542;2022-12-18T07:05:00;18.30;;;14.93;;
462;SDS011;218;51.902;9.542;2022-12-18T07:07:28;17.00;;;13.77;;
462;SDS011;218;51.902;9.542;2022-12-18T07:09:55;17.35;;;13.90;;
462;SDS011;218;51.902;9.542;2022-12-18T07:12:22;30.55;;;21.27;;
462;SDS011;218;51.902;9.542;2022-12-18T07:14:49;52.47;;;32.05;;
462;SDS011;218;51.902;9.542;2022-12-18T07:17:17;52.70;;;35.33;;
462;SDS011;218;51.902;9.542;2022-12-18T07:19:44;55.90;;;38.38;;
462;SDS011;218;51.902;9.542;2022-12-18T07:22:11;53.38;;;39.17;;
462;SDS011;218;51.902;9.542;2022-12-18T07:24:40;51.85;;;37.58;;
462;SDS011;218;51.902;9.542;2022-12-18T07:27:07;51.10;;;39.10;;
462;SDS011;218;51.902;9.542;2022-12-18T07:29:34;52.53;;;37.53;;
462;SDS011;218;51.902;9.542;2022-12-18T07:32:01;40.55;;;33.08;;
462;SDS011;218;51.902;9.542;2022-12-18T07:34:28;32.85;;;23.25;;
462;SDS011;218;51.902;9.542;2022-12-18T07:36:55;25.55;;;20.50;;
462;SDS011;218;51.902;9.542;2022-12-18T07:39:25;20.65;;;16.85;;
462;SDS011;218;51.902;9.542;2022-12-18T07:41:53;16.25;;;14.38;;
462;SDS011;218;51.902;9.542;2022-12-18T07:44:34;13.80;;;10.93;;
462;SDS011;218;51.902;9.542;2022-12-18T07:47:01;13.43;;;10.50;;
462;SDS011;218;51.902;9.542;2022-12-18T07:49:28;15.73;;;11.55;;
462;SDS011;218;51.902;9.542;2022-12-18T07:51:55;12.75;;;11.40;;
462;SDS011;218;51.902;9.542;2022-12-18T07:54:23;14.38;;;12.00;;
462;SDS011;218;51.902;9.542;2022-12-18T07:56:52;10.70;;;9.60;;
462;SDS011;218;51.902;9.542;2022-12-18T07:59:19;14.55;;;10.82;;
462;SDS011;218;51.902;9.542;2022-12-18T08:01:46;17.73;;;13.30;;
462;SDS011;218;51.902;9.542;2022-12-18T08:04:13;13.30;;;11.98;;
462;SDS011;218;51.902;9.542;2022-12-18T08:06:40;16.15;;;12.30;;
462;SDS011;218;51.902;9.542;2022-12-18T08:09:09;16.08;;;11.82;;
462;SDS011;218;51.902;9.542;2022-12-18T08:11:36;21.02;;;14.45;;
462;SDS011;218;51.902;9.542;2022-12-18T08:14:05;17.77;;;12.63;;
462;SDS011;218;51.902;9.542;2022-12-18T08:16:32;15.77;;;13.02;;
462;SDS011;218;51.902;9.542;2022-12-18T08:18:58;22.52;;;16.08;;
462;SDS011;218;51.902;9.542;2022-12-18T08:21:26;15.45;;;13.82;;
462;SDS011;218;51.902;9.542;2022-12-18T08:23:55;16.02;;;14.40;;
462;SDS011;218;51.902;9.542;2022-12-18T08:26:23;18.13;;;13.65;;
462;SDS011;218;51.902;9.542;2022-12-18T08:28:50;13.63;;;11.30;;
462;SDS011;218;51.902;9.542;2022-12-18T08:31:19;26.35;;;13.35;;
462;SDS011;218;51.902;9.542;2022-12-18T08:33:47;16.85;;;12.75;;
462;SDS011;218;51.902;9.542;2022-12-18T08:36:15;15.35;;;13.48;;
462;SDS011;218;51.902;9.542;2022-12-18T08:38:43;20.85;;;15.43;;
462;SDS011;218;51.902;9.542;2022-12-18T08:41:10;16.58;;;14.85;;
462;SDS011;218;51.902;9.542;2022-12-18T08:43:39;17.90;;;13.30;;
462;SDS011;218;51.902;9.542;2022-12-18T08:46:26;15.32;;;13.35;;
462;SDS011;218;51.902;9.542;2022-12-18T08:48:54;13.70;;;11.77;;
462;SDS011;218;51.902;9.542;2022-12-18T08:51:21;18.80;;;14.02;;
462;SDS011;218;51.902;9.542;2022-12-18T08:53:48;13.93;;;12.20;;
462;SDS011;218;51.902;9.542;2022-12-18T08:56:15;16.70;;;14.95;;
462;SDS011;218;51.902;9.542;2022-12-18T08:58:42;24.83;;;16.90;;
462;SDS011;218;51.902;9.542;2022-12-18T09:01:10;26.63;;;18.92;;
462;SDS011;218;51.902;9.542;2022-12-18T09:03:39;26.40;;;20.90;;
462;SDS011;218;51.902;9.542;2022-12-18T09:06:07;18.58;;;14.80;;
462;SDS011;218;51.902;9.542;2022-12-18T09:08:34;18.65;;;16.70;;
462;SDS011;218;51.902;9.542;2022-12-18T09:11:01;22.73;;;17.02;;
462;SDS011;218;51.902;9.542;2022-12-18T09:13:28;17.55;;;12.60;;
462;SDS011;218;51.902;9.542;2022-12-18T09:15:55;19.17;;;14.70;;
462;SDS011;218;51.902;9.542;2022-12-18T09:18:22;21.60;;;18.00;;
462;SDS011;218;51.902;9.542;2022-12-18T09:20:51;21.50;;;19.23;;
462;SDS011;218;51.902;9.542;2022-12-18T09:23:19;23.67;;;18.67;;
462;SDS011;218;51.902;9.542;2022-12-18T09:25:46;20.40;;;16.15;;
462;SDS011;218;51.902;9.542;2022-12-18T09:28:15;19.20;;;15.10;;
462;SDS011;218;51.902;9.542;2022-12-18T09:30:44;20.83;;;15.02;;
462;SDS011;218;51.902;9.542;2022-12-18T09:33:12;16.73;;;14.77;;
462;SDS011;218;51.902;9.542;2022-12-18T09:35:39;23.15;;;15.20;;
462;SDS011;218;51.902;9.542;2022-12-18T09:38:09;25.73;;;15.15;;
462;SDS011;218;51.902;9.542;2022-12-18T09:40:40;23.65;;;21.08;;
462;SDS011;218;51.902;9.542;2022-12-18T09:43:12;24.15;;;19.83;;
462;SDS011;218;51.902;9.542;2022-12-18T09:45:44;20.30;;;16.80;;
462;SDS011;218;51.902;9.542;2022-12-18T09:48:14;18.95;;;16.85;;
462;SDS011;218;51.902;9.542;2022-12-18T09:50:45;17.20;;;15.27;;
462;SDS011;218;51.902;9.542;2022-12-18T09:53:15;16.73;;;12.73;;
462;SDS011;218;51.902;9.542;2022-12-18T09:55:45;16.48;;;12.25;;
462;SDS011;218;51.902;9.542;2022-12-18T09:58:15;18.65;;;15.18;;
462;SDS011;218;51.902;9.542;2022-12-18T10:00:46;18.63;;;14.70;;
462;SDS011;218;51.902;9.542;2022-12-18T10:03:14;16.23;;;12.95;;
462;SDS011;218;51.902;9.542;2022-12-18T10:05:43;15.82;;;13.88;;
462;SDS011;218;51.902;9.542;2022-12-18T10:08:18;16.38;;;13.45;;
462;SDS011;218;51.902;9.542;2022-12-18T10:10:52;20.23;;;12.90;;
462;SDS011;218;51.902;9.542;2022-12-18T10:13:24;14.98;;;11.15;;
462;SDS011;218;51.902;9.542;2022-12-18T10:16:00;13.93;;;11.68;;
462;SDS011;218;51.902;9.542;2022-12-18T10:18:43;16.38;;;10.68;;
462;SDS011;218;51.902;9.542;2022-12-18T10:21:27;15.52;;;12.63;;
462;SDS011;218;51.902;9.542;2022-12-18T10:24:01;14.35;;;11.05;;
462;SDS011;218;51.902;9.542;2022-12-18T10:26:38;12.73;;;11.23;;
462;SDS011;218;51.902;9.542;2022-12-18T10:29:07;15.35;;;10.95;;
462;SDS011;218;51.902;9.542;2022-12-18T10:31:37;19.42;;;11.70;;
462;SDS011;218;51.902;9.542;2022-12-18T10:34:04;13.23;;;11.02;;
462;SDS011;218;51.902;9.542;2022-12-18T10:36:35;18.42;;;12.25;;
462;SDS011;218;51.902;9.542;2022-12-18T10:39:13;16.83;;;11.68;;
462;SDS011;218;51.902;9.542;2022-12-18T10:41:42;13.75;;;10.32;;
462;SDS011;218;51.902;9.542;2022-12-18T10:44:10;12.13;;;10.48;;
462;SDS011;218;51.902;9.542;2022-12-18T10:46:41;13.48;;;10.63;;
462;SDS011;218;51.902;9.542;2022-12-18T10:49:18;14.30;;;10.90;;
462;SDS011;218;51.902;9.542;2022-12-18T10:51:47;13.20;;;11.80;;
462;SDS011;218;51.902;9.542;2022-12-18T10:54:16;11.70;;;10.30;;
462;SDS011;218;51.902;9.542;2022-12-18T10:56:45;13.15;;;11.70;;
462;SDS011;218;51.902;9.542;2022-12-18T10:59:13;11.43;;;10.32;;
462;SDS011;218;51.902;9.542;2022-12-18T11:01:45;16.67;;;13.55;;
462;SDS011;218;51.902;9.542;2022-12-18T11:04:18;12.93;;;11.25;;
462;SDS011;218;51.902;9.542;2022-12-18T11:06:57;13.40;;;10.32;;
462;SDS011;218;51.902;9.542;2022-12-18T11:09:26;14.60;;;11.23;;
462;SDS011;218;51.902;9.542;2022-12-18T11:11:55;14.48;;;12.35;;
462;SDS011;218;51.902;9.542;2022-12-18T11:14:25;17.50;;;15.63;;
462;SDS011;218;51.902;9.542;2022-12-18T11:16:55;15.35;;;13.02;;
462;SDS011;218;51.902;9.542;2022-12-18T11:19:27;14.32;;;12.13;;
462;SDS011;218;51.902;9.542;2022-12-18T11:21:57;15.00;;;12.82;;
462;SDS011;218;51.902;9.542;2022-12-18T11:24:28;15.73;;;12.43;;
462;SDS011;218;51.902;9.542;2022-12-18T11:26:57;14.55;;;12.27;;
462;SDS011;218;51.902;9.542;2022-12-18T11:29:30;13.43;;;12.02;;
462;SDS011;218;51.902;9.542;2022-12-18T11:32:19;12.52;;;11.23;;
462;SDS011;218;51.902;9.542;2022-12-18T11:35:10;12.05;;;9.23;;
462;SDS011;218;51.902;9.542;2022-12-18T11:37:43;10.35;;;9.35;;
462;SDS011;218;51.902;9.542;2022-12-18T11:40:16;11.57;;;8.80;;
462;SDS011;218;51.902;9.542;2022-12-18T11:42:48;12.13;;;8.70;;
462;SDS011;218;51.902;9.542;2022-12-18T11:45:25;13.23;;;10.70;;
462;SDS011;218;51.902;9.542;2022-12-18T11:47:56;12.30;;;10.50;;
462;SDS011;218;51.902;9.542;2022-12-18T11:50:28;10.50;;;9.45;;
462;SDS011;218;51.902;9.542;2022-12-18T11:52:59;13.48;;;10.00;;
462;SDS011;218;51.902;9.542;2022-12-18T11:55:31;26.88;;;15.90;;
462;SDS011;218;51.902;9.542;2022-12-18T11:58:04;22.23;;;13.57;;
462;SDS011;218;51.902;9.542;2022-12-18T12:00:42;11.48;;;10.07;;
462;SDS011;218;51.902;9.542;2022-12-18T12:03:18;12.25;;;10.45;;
462;SDS011;218;51.902;9.542;2022-12-18T12:05:56;10.65;;;9.35;;
462;SDS011;218;51.902;9.542;2022-12-18T12:08:31;10.82;;;8.88;;
462;SDS011;218;51.902;9.542;2022-12-18T12:11:08;13.60;;;9.65;;
462;SDS011;218;51.902;9.542;2022-12-18T12:13:43;12.90;;;9.77;;
462;SDS011;218;51.902;9.542;2022-12-18T12:16:29;11.20;;;9.18;;
462;SDS011;218;51.902;9.542;2022-12-18T12:19:11;13.00;;;10.13;;
462;SDS011;218;51.902;9.542;2022-12-18T12:21:49;13.80;;;10.88;;
462;SDS011;218;51.902;9.542;2022-12-18T12:24:25;13.00;;;11.20;;
462;SDS011;218;51.902;9.542;2022-12-18T12:27:03;12.55;;;9.80;;
462;SDS011;218;51.902;9.542;2022-12-18T12:29:46;12.15;;;10.90;;
462;SDS011;218;51.902;9.542;2022-12-18T12:32:23;14.60;;;12.43;;
462;SDS011;218;51.902;9.542;2022-12-18T12:35:03;15.30;;;10.90;;
462;SDS011;218;51.902;9.542;2022-12-18T12:37:43;13.10;;;10.15;;
462;SDS011;218;51.902;9.542;2022-12-18T12:40:19;14.50;;;11.68;;
462;SDS011;218;51.902;9.542;2022-12-18T12:42:50;13.38;;;11.13;;
462;SDS011;218;51.902;9.542;2022-12-18T12:45:40;15.48;;;11.18;;
462;SDS011;218;51.902;9.542;2022-12-18T12:48:15;15.57;;;11.38;;
462;SDS011;218;51.902;9.542;2022-12-18T12:50:46;13.88;;;11.98;;
462;SDS011;218;51.902;9.542;2022-12-18T12:53:17;14.63;;;13.05;;
462;SDS011;218;51.902;9.542;2022-12-18T12:55:50;14.45;;;12.93;;
462;SDS011;218;51.902;9.542;2022-12-18T12:58:22;18.13;;;11.00;;
462;SDS011;218;51.902;9.542;2022-12-18T13:00:59;15.95;;;14.07;;
462;SDS011;218;51.902;9.542;2022-12-18T13:03:36;19.27;;;14.43;;
462;SDS011;218;51.902;9.542;2022-12-18T13:06:12;15.35;;;12.77;;
462;SDS011;218;51.902;9.542;2022-12-18T13:08:52;15.82;;;12.48;;
462;SDS011;218;51.902;9.542;2022-12-18T13:11:31;14.52;;;12.23;;
462;SDS011;218;51.902;9.542;2022-12-18T13:14:24;13.07;;;11.68;;
462;SDS011;218;51.902;9.542;2022-12-18T13:19:40;15.43;;;12.85;;
462;SDS011;218;51.902;9.542;2022-12-18T13:22:19;14.23;;;12.82;;
462;SDS011;218;51.902;9.542;2022-12-18T13:24:48;14.73;;;12.95;;
462;SDS011;218;51.902;9.542;2022-12-18T13:33:36;16.65;;;13.13;;
462;SDS011;218;51.902;9.542;2022-12-18T13:36:10;17.80;;;13.48;;
462;SDS011;218;51.902;9.542;2022-12-18T13:38:40;18.42;;;15.60;;
462;SDS011;218;51.902;9.542;2022-12-18T13:41:21;15.75;;;14.20;;
462;SDS011;218;51.902;9.542;2022-12-18T13:43:50;16.33;;;13.45;;
462;SDS011;218;51.902;9.542;2022-12-18T13:46:21;19.63;;;14.30;;
462;SDS011;218;51.902;9.542;2022-12-18T13:49:00;20.83;;;15.10;;
462;SDS011;218;51.902;9.542;2022-12-18T13:51:30;15.48;;;13.80;;
462;SDS011;218;51.902;9.542;2022-12-18T13:53:59;15.85;;;13.40;;
462;SDS011;218;51.902;9.542;2022-12-18T13:56:28;13.55;;;11.18;;
462;SDS011;218;51.902;9.542;2022-12-18T13:59:03;16.67;;;10.57;;
462;SDS011;218;51.902;9.542;2022-12-18T14:01:42;13.88;;;10.98;;
462;SDS011;218;51.902;9.542;2022-12-18T14:04:17;11.25;;;10.15;;
462;SDS011;218;51.902;9.542;2022-12-18T14:06:50;15.07;;;11.02;;
462;SDS011;218;51.902;9.542;2022-12-18T14:09:23;12.75;;;11.25;;
462;SDS011;218;51.902;9.542;2022-12-18T14:11:51;13.82;;;10.80;;
462;SDS011;218;51.902;9.542;2022-12-18T14:14:40;11.70;;;10.52;;
462;SDS011;218;51.902;9.542;2022-12-18T14:17:11;14.35;;;10.40;;
462;SDS011;218;51.902;9.542;2022-12-18T14:19:41;10.65;;;9.55;;
462;SDS011;218;51.902;9.542;2022-12-18T14:22:16;12.48;;;10.43;;
462;SDS011;218;51.902;9.542;2022-12-18T14:24:45;10.98;;;9.85;;
462;SDS011;218;51.902;9.542;2022-12-18T14:27:19;15.07;;;10.48;;
462;SDS011;218;51.902;9.542;2022-12-18T14:29:48;15.80;;;9.02;;
462;SDS011;218;51.902;9.542;2022-12-18T14:32:17;15.73;;;10.07;;
462;SDS011;218;51.902;9.542;2022-12-18T14:34:46;12.52;;;9.93;;
462;SDS011;218;51.902;9.542;2022-12-18T14:37:14;14.18;;;9.57;;
462;SDS011;218;51.902;9.542;2022-12-18T14:39:53;12.43;;;10.00;;
462;SDS011;218;51.902;9.542;2022-12-18T14:42:24;13.40;;;10.70;;
462;SDS011;218;51.902;9.542;2022-12-18T14:48:00;9.65;;;8.40;;
462;SDS011;218;51.902;9.542;2022-12-18T14:50:33;9.88;;;8.38;;
462;SDS011;218;51.902;9.542;2022-12-18T14:53:01;9.40;;;7.90;;
462;SDS011;218;51.902;9.542;2022-12-18T14:55:28;10.85;;;8.07;;
462;SDS011;218;51.902;9.542;2022-12-18T14:57:55;12.90;;;8.85;;
462;SDS011;218;51.902;9.542;2022-12-18T15:00:24;9.90;;;8.70;;
462;SDS011;218;51.902;9.542;2022-12-18T15:02:52;10.95;;;9.65;;
462;SDS011;218;51.902;9.542;2022-12-18T15:05:25;10.73;;;9.18;;
462;SDS011;218;51.902;9.542;2022-12-18T15:07:54;12.65;;;9.48;;
462;SDS011;218;51.902;9.542;2022-12-18T15:10:22;11.75;;;10.20;;
462;SDS011;218;51.902;9.542;2022-12-18T15:13:05;17.00;;;13.38;;
462;SDS011;218;51.902;9.542;2022-12-18T15:18:29;13.15;;;10.52;;
462;SDS011;218;51.902;9.542;2022-12-18T15:21:06;14.05;;;10.82;;
462;SDS011;218;51.902;9.542;2022-12-18T15:23:36;13.90;;;9.90;;
462;SDS011;218;51.902;9.542;2022-12-18T15:26:05;14.70;;;10.15;;
462;SDS011;218;51.902;9.542;2022-12-18T15:28:34;9.75;;;8.32;;
462;SDS011;218;51.902;9.542;2022-12-18T15:31:04;10.55;;;8.65;;
462;SDS011;218;51.902;9.542;2022-12-18T15:33:47;10.35;;;8.60;;
462;SDS011;218;51.902;9.542;2022-12-18T15:36:32;12.77;;;8.68;;
462;SDS011;218;51.902;9.542;2022-12-18T15:39:01;8.80;;;7.80;;
462;SDS011;218;51.902;9.542;2022-12-18T15:41:30;10.43;;;9.32;;
462;SDS011;218;51.902;9.542;2022-12-18T15:43:57;11.70;;;10.25;;
462;SDS011;218;51.902;9.542;2022-12-18T15:46:24;11.02;;;7.32;;
462;SDS011;218;51.902;9.542;2022-12-18T15:48:52;9.90;;;8.52;;
462;SDS011;218;51.902;9.542;2022-12-18T15:51:21;8.00;;;7.20;;
462;SDS011;218;51.902;9.542;2022-12-18T15:53:52;9.98;;;8.77;;
462;SDS011;218;51.902;9.542;2022-12-18T15:56:21;11.52;;;9.63;;